createdAt,value
2022-12-22T00:01:50.483Z,10.46
2022-12-22T00:05:11.127Z,10.42
2022-12-22T00:08:31.473Z,10.42
2022-12-22T00:11:51.855Z,10.46
2022-12-22T00:15:11.909Z,10.46
2022-12-22T00:18:33.783Z,10.49
2022-12-22T00:21:53.689Z,10.53
2022-12-22T00:25:13.527Z,10.56
2022-12-22T00:28:33.947Z,10.61
2022-12-22T00:31:54.106Z,10.60
2022-12-22T00:35:14.192Z,10.52
2022-12-22T00:38:39.761Z,10.52
2022-12-22T00:42:00.114Z,10.54
2022-12-22T00:45:20.024Z,10.40
2022-12-22T00:48:43.975Z,10.16
2022-12-22T00:52:04.545Z,10.04
2022-12-22T00:55:36.214Z,10.04
2022-12-22T00:58:56.409Z,10.03
2022-12-22T01:02:16.548Z,9.99
2022-12-22T01:05:36.509Z,10.13
2022-12-22T01:08:56.480Z,10.19
2022-12-22T01:12:16.750Z,10.20
2022-12-22T01:15:38.704Z,10.38
2022-12-22T01:18:58.897Z,10.51
2022-12-22T01:22:19.174Z,10.59
2022-12-22T01:25:39.044Z,10.70
2022-12-22T01:28:59.140Z,10.74
2022-12-22T01:32:19.150Z,10.75
2022-12-22T01:35:45.211Z,10.74
2022-12-22T01:39:05.278Z,10.90
2022-12-22T01:42:30.717Z,10.84
2022-12-22T01:45:54.262Z,10.83
2022-12-22T01:49:14.402Z,10.92
2022-12-22T01:52:38.058Z,10.87
2022-12-22T01:55:58.012Z,10.87
2022-12-22T01:59:20.778Z,10.97
2022-12-22T02:02:44.734Z,10.94
2022-12-22T02:06:29.965Z,11.07
2022-12-22T02:10:16.528Z,11.10
2022-12-22T02:14:01.705Z,11.09
2022-12-22T02:17:37.295Z,11.16
2022-12-22T02:21:08.010Z,11.18
2022-12-22T02:24:33.926Z,11.25
2022-12-22T02:27:56.928Z,11.23
2022-12-22T02:31:17.538Z,11.37
2022-12-22T02:34:37.607Z,11.33
2022-12-22T02:38:38.702Z,11.28
2022-12-22T02:42:40.325Z,11.32
2022-12-22T02:46:21.868Z,11.37
2022-12-22T02:49:56.803Z,11.51
2022-12-22T02:53:18.544Z,11.52
2022-12-22T02:56:38.918Z,11.54
2022-12-22T02:59:59.171Z,11.51
2022-12-22T03:03:19.535Z,11.58
2022-12-22T03:06:39.992Z,11.56
2022-12-22T03:10:00.129Z,11.56
2022-12-22T03:13:20.433Z,11.57
2022-12-22T03:16:40.519Z,11.61
2022-12-22T03:20:00.690Z,11.56
2022-12-22T03:23:25.263Z,11.58
2022-12-22T03:26:27.568Z,11.71
2022-12-22T03:29:29.116Z,11.68
2022-12-22T03:32:30.658Z,11.77
2022-12-22T03:35:32.332Z,11.70
2022-12-22T03:38:34.514Z,11.65
2022-12-22T03:41:54.576Z,11.60
2022-12-22T03:45:14.482Z,11.65
2022-12-22T03:48:16.087Z,11.63
2022-12-22T03:51:17.649Z,11.62
2022-12-22T03:54:24.315Z,11.61
2022-12-22T03:57:25.834Z,11.56
2022-12-22T04:00:27.329Z,11.58
2022-12-22T04:03:28.985Z,11.63
2022-12-22T04:06:30.587Z,11.52
2022-12-22T04:09:32.250Z,11.55
2022-12-22T04:12:52.165Z,11.56
2022-12-22T04:15:53.654Z,11.57
2022-12-22T04:18:55.451Z,11.67
2022-12-22T04:21:57.007Z,11.67
2022-12-22T04:24:58.522Z,11.65
2022-12-22T04:28:00.160Z,11.66
2022-12-22T04:31:01.758Z,11.63
2022-12-22T04:34:03.290Z,11.65
2022-12-22T04:37:14.915Z,11.72
2022-12-22T04:40:18.929Z,11.73
2022-12-22T04:43:20.548Z,11.67
2022-12-22T04:46:22.121Z,11.66
2022-12-22T04:49:23.744Z,11.62
2022-12-22T04:52:25.434Z,11.63
2022-12-22T04:55:26.990Z,11.68
2022-12-22T04:58:29.384Z,11.69
2022-12-22T05:01:30.929Z,11.69
2022-12-22T05:04:32.582Z,11.68
2022-12-22T05:07:34.134Z,11.62
2022-12-22T05:10:35.626Z,11.61
2022-12-22T05:13:37.841Z,11.62
2022-12-22T05:16:39.575Z,11.57
2022-12-22T05:19:41.154Z,11.55
2022-12-22T05:22:43.151Z,11.54
2022-12-22T05:25:44.701Z,11.50
2022-12-22T05:28:47.989Z,11.48
2022-12-22T05:31:49.690Z,11.45
2022-12-22T05:34:51.253Z,11.40
2022-12-22T05:37:52.790Z,11.34
2022-12-22T05:40:58.354Z,11.33
2022-12-22T05:44:05.199Z,11.33
2022-12-22T05:47:06.655Z,11.33
2022-12-22T05:50:09.815Z,11.33
2022-12-22T05:53:11.311Z,11.28
2022-12-22T05:56:12.766Z,11.32
2022-12-22T05:59:14.336Z,11.32
2022-12-22T06:02:16.416Z,11.34
2022-12-22T06:05:18.691Z,11.39
2022-12-22T06:08:20.441Z,11.36
2022-12-22T06:11:22.021Z,11.50
2022-12-22T06:14:23.723Z,11.52
2022-12-22T06:17:25.275Z,11.43
2022-12-22T06:20:27.019Z,11.38
2022-12-22T06:23:28.608Z,11.37
2022-12-22T06:26:30.231Z,11.44
2022-12-22T06:29:31.781Z,11.41
2022-12-22T06:32:37.160Z,11.43
2022-12-22T06:35:38.709Z,11.42
2022-12-22T06:38:40.257Z,11.43
2022-12-22T06:42:00.555Z,11.39
2022-12-22T06:45:02.183Z,11.31
2022-12-22T06:48:04.402Z,11.31
2022-12-22T06:51:06.128Z,11.29
2022-12-22T06:54:07.718Z,11.30
2022-12-22T06:57:09.348Z,11.41
2022-12-22T07:00:11.352Z,11.39
2022-12-22T07:03:13.057Z,11.41
2022-12-22T07:06:14.777Z,11.37
2022-12-22T07:09:16.288Z,11.38
2022-12-22T07:12:17.851Z,11.35
2022-12-22T07:15:19.360Z,11.36
2022-12-22T07:18:21.347Z,11.38
2022-12-22T07:21:22.863Z,11.32
2022-12-22T07:24:26.050Z,11.27
2022-12-22T07:27:27.746Z,11.24
2022-12-22T07:30:29.859Z,11.22
2022-12-22T07:33:31.933Z,11.20
2022-12-22T07:36:33.426Z,11.13
2022-12-22T07:39:34.946Z,11.13
2022-12-22T07:42:45.287Z,11.13
2022-12-22T07:45:46.821Z,11.04
2022-12-22T07:49:06.753Z,11.13
2022-12-22T07:52:08.579Z,11.10
2022-12-22T07:55:10.204Z,11.05
2022-12-22T07:58:11.690Z,11.08
2022-12-22T08:01:13.246Z,11.04
2022-12-22T08:04:15.373Z,11.01
2022-12-22T08:07:41.658Z,10.95
2022-12-22T08:10:43.243Z,10.92
2022-12-22T08:13:44.861Z,10.87
2022-12-22T08:16:46.593Z,10.90
2022-12-22T08:19:48.693Z,10.97
2022-12-22T08:22:50.235Z,11.04
2022-12-22T08:26:16.213Z,11.04
2022-12-22T08:29:23.929Z,11.03
2022-12-22T08:32:25.546Z,11.06
2022-12-22T08:35:55.342Z,11.16
2022-12-22T08:38:57.963Z,11.27
2022-12-22T08:42:00.299Z,11.26
2022-12-22T08:45:01.855Z,11.13
2022-12-22T08:48:03.711Z,11.11
2022-12-22T08:51:05.520Z,11.06
2022-12-22T08:54:07.308Z,11.10
2022-12-22T08:57:09.359Z,11.21
2022-12-22T09:00:13.144Z,11.43
2022-12-22T09:03:15.025Z,11.52
2022-12-22T09:06:18.286Z,11.49
2022-12-22T09:09:20.399Z,11.52
2022-12-22T09:12:21.982Z,11.55
2022-12-22T09:15:23.620Z,11.47
2022-12-22T09:18:25.236Z,11.29
2022-12-22T09:21:27.357Z,11.22
2022-12-22T09:24:28.868Z,11.23
2022-12-22T09:27:30.692Z,11.13
2022-12-22T09:30:32.885Z,10.92
2022-12-22T09:33:36.317Z,10.66
2022-12-22T09:36:40.797Z,10.62
2022-12-22T09:39:42.374Z,10.72
2022-12-22T09:42:43.925Z,10.75
2022-12-22T09:45:45.987Z,10.92
2022-12-22T09:48:48.159Z,10.96
2022-12-22T09:51:57.229Z,10.97
2022-12-22T09:54:58.779Z,10.93
2022-12-22T09:58:00.315Z,10.95
2022-12-22T10:01:39.893Z,10.87
2022-12-22T10:04:54.463Z,10.76
2022-12-22T10:08:01.748Z,10.71
2022-12-22T10:11:03.716Z,10.69
2022-12-22T10:14:05.278Z,10.75
2022-12-22T10:17:31.533Z,10.80
2022-12-22T10:20:33.275Z,10.85
2022-12-22T10:23:45.069Z,10.89
2022-12-22T10:26:46.829Z,10.91
2022-12-22T10:29:48.365Z,10.96
2022-12-22T10:33:03.661Z,11.02
2022-12-22T10:36:06.957Z,10.98
2022-12-22T10:39:10.874Z,11.05
2022-12-22T10:42:14.559Z,11.03
2022-12-22T10:45:19.196Z,11.05
2022-12-22T10:48:31.606Z,11.08
2022-12-22T10:51:33.216Z,11.06
2022-12-22T10:54:42.544Z,11.10
2022-12-22T10:57:44.174Z,11.18
2022-12-22T11:01:00.979Z,11.34
2022-12-22T11:04:17.578Z,11.38
2022-12-22T11:07:19.874Z,11.41
2022-12-22T11:10:33.675Z,11.37
2022-12-22T11:13:57.115Z,11.39
2022-12-22T11:17:12.648Z,11.40
2022-12-22T11:21:11.729Z,11.42
2022-12-22T11:24:25.459Z,11.39
2022-12-22T11:27:27.833Z,11.31
2022-12-22T11:30:46.811Z,11.28
2022-12-22T11:34:12.435Z,11.20
2022-12-22T11:37:23.636Z,11.16
2022-12-22T11:40:32.951Z,11.10
2022-12-22T11:43:41.744Z,11.07
2022-12-22T11:46:58.056Z,11.06
2022-12-22T11:50:57.592Z,11.06
2022-12-22T11:53:52.688Z,11.04
2022-12-22T11:57:08.199Z,11.03
2022-12-22T12:00:11.904Z,11.05
2022-12-22T12:03:30.949Z,11.08
2022-12-22T12:07:03.958Z,11.10
2022-12-22T12:10:20.472Z,11.17
2022-12-22T12:13:57.192Z,11.17
2022-12-22T12:17:09.006Z,11.19
2022-12-22T12:20:27.920Z,11.24
2022-12-22T12:23:59.441Z,11.34
2022-12-22T12:27:14.682Z,11.53
2022-12-22T12:33:49.176Z,11.73
2022-12-22T12:36:59.269Z,11.70
2022-12-22T12:40:06.543Z,11.64
2022-12-22T12:43:16.281Z,11.56
2022-12-22T12:46:40.021Z,11.52
2022-12-22T12:49:50.703Z,11.39
2022-12-22T12:52:52.224Z,11.25
2022-12-22T12:55:58.383Z,11.06
2022-12-22T12:59:01.543Z,10.98
2022-12-22T13:02:03.265Z,10.94
2022-12-22T13:05:07.988Z,10.49
2022-12-22T13:08:15.491Z,10.09
2022-12-22T13:11:52.213Z,9.81
2022-12-22T13:15:01.787Z,9.53
2022-12-22T13:18:09.691Z,9.50
2022-12-22T13:21:52.411Z,9.54
2022-12-22T13:24:49.651Z,9.67
2022-12-22T13:27:52.263Z,9.90
2022-12-22T13:31:00.679Z,10.05
2022-12-22T13:34:05.021Z,10.09
2022-12-22T13:37:21.300Z,10.07
2022-12-22T13:40:26.015Z,10.13
2022-12-22T13:43:30.073Z,10.28
2022-12-22T13:46:38.993Z,10.47
2022-12-22T13:50:07.607Z,10.47
2022-12-22T13:53:08.234Z,10.41
2022-12-22T13:56:16.685Z,10.36
2022-12-22T13:59:40.575Z,10.32
2022-12-22T14:02:44.592Z,10.37
2022-12-22T14:05:48.629Z,10.37
2022-12-22T14:08:50.278Z,10.35
2022-12-22T14:12:12.132Z,10.18
2022-12-22T14:15:19.202Z,10.02
2022-12-22T14:18:25.650Z,9.94
2022-12-22T14:21:27.434Z,9.92
2022-12-22T14:24:38.333Z,9.83
2022-12-22T14:27:49.250Z,9.80
2022-12-22T14:30:54.191Z,9.79
2022-12-22T14:34:05.143Z,9.77
2022-12-22T14:37:09.459Z,9.77
2022-12-22T14:40:35.203Z,9.83
2022-12-22T14:43:36.752Z,9.88
2022-12-22T14:46:39.308Z,10.01
2022-12-22T14:49:50.485Z,10.16
2022-12-22T14:52:55.510Z,10.15
2022-12-22T14:55:57.090Z,10.25
2022-12-22T14:59:22.209Z,10.32
2022-12-22T15:02:36.709Z,10.37
2022-12-22T15:05:42.099Z,10.43
2022-12-22T15:08:43.922Z,10.38
2022-12-22T15:11:53.037Z,10.44
2022-12-22T15:14:54.663Z,10.55
2022-12-22T15:17:56.230Z,10.55
2022-12-22T15:20:58.084Z,10.56
2022-12-22T15:23:59.625Z,10.58
2022-12-22T15:27:01.351Z,10.64
2022-12-22T15:30:03.164Z,10.57
2022-12-22T15:33:11.828Z,10.56
2022-12-22T15:36:14.218Z,10.60
2022-12-22T15:39:37.110Z,10.71
2022-12-22T15:42:48.310Z,10.69
2022-12-22T15:45:51.083Z,10.74
2022-12-22T15:48:52.987Z,10.75
2022-12-22T15:52:01.846Z,10.71
2022-12-22T15:55:06.780Z,10.70
2022-12-22T15:58:12.270Z,10.66
2022-12-22T16:01:13.922Z,10.61
2022-12-22T16:04:17.051Z,10.70
2022-12-22T16:07:18.640Z,10.73
2022-12-22T16:10:26.826Z,10.74
2022-12-22T16:13:28.717Z,10.66
2022-12-22T16:16:30.681Z,10.61
2022-12-22T16:19:32.489Z,10.55
2022-12-22T16:22:36.651Z,10.62
2022-12-22T16:25:39.193Z,10.70
2022-12-22T16:28:40.742Z,10.77
2022-12-22T16:31:42.525Z,10.65
2022-12-22T16:34:44.522Z,10.62
2022-12-22T16:37:48.697Z,10.66
2022-12-22T16:40:51.591Z,10.65
2022-12-22T16:47:31.273Z,10.79
2022-12-22T16:50:33.606Z,10.48
2022-12-22T16:53:35.407Z,10.38
2022-12-22T16:56:38.625Z,10.43
2022-12-22T16:59:40.531Z,10.42
2022-12-22T17:02:44.939Z,10.32
2022-12-22T17:05:50.684Z,10.14
2022-12-22T17:08:53.525Z,10.07
2022-12-22T17:11:55.602Z,9.99
2022-12-22T17:15:27.988Z,9.95
2022-12-22T17:18:48.471Z,9.89
2022-12-22T17:21:51.410Z,9.93
2022-12-22T17:24:55.694Z,9.94
2022-12-22T17:32:32.147Z,10.18
2022-12-22T17:35:35.475Z,10.24
2022-12-22T17:38:37.284Z,10.27
2022-12-22T17:41:38.884Z,10.40
2022-12-22T17:44:40.618Z,10.35
2022-12-22T17:47:43.192Z,10.44
2022-12-22T17:50:49.947Z,10.59
2022-12-22T17:53:52.461Z,10.57
2022-12-22T17:57:02.592Z,10.63
2022-12-22T18:00:04.864Z,10.78
2022-12-22T18:03:15.021Z,10.73
2022-12-22T18:06:19.810Z,10.72
2022-12-22T18:09:26.129Z,10.72
2022-12-22T18:12:29.799Z,10.75
2022-12-22T18:15:34.267Z,10.83
2022-12-22T18:18:36.543Z,10.87
2022-12-22T18:21:38.031Z,10.97
2022-12-22T18:24:39.660Z,11.10
2022-12-22T18:27:42.152Z,11.10
2022-12-22T18:30:44.441Z,11.08
2022-12-22T18:33:46.071Z,10.65
2022-12-22T18:36:47.797Z,10.34
2022-12-22T18:39:49.371Z,10.17
2022-12-22T18:42:52.636Z,10.06
2022-12-22T18:45:54.198Z,10.02
2022-12-22T18:48:59.043Z,10.06
2022-12-22T18:52:16.274Z,9.99
2022-12-22T18:55:23.397Z,9.77
2022-12-22T18:58:25.515Z,9.60
2022-12-22T19:01:27.263Z,9.32
2022-12-22T19:04:29.172Z,9.13
2022-12-22T19:07:30.723Z,8.91
2022-12-22T19:10:40.051Z,8.94
2022-12-22T19:13:47.064Z,8.93
2022-12-22T19:16:48.964Z,8.95
2022-12-22T19:19:50.773Z,8.93
2022-12-22T19:22:52.700Z,8.94
2022-12-22T19:26:01.663Z,8.97
2022-12-22T19:29:04.823Z,8.88
2022-12-22T19:32:06.555Z,8.88
2022-12-22T19:35:17.874Z,8.93
2022-12-22T19:38:24.821Z,9.03
2022-12-22T19:41:26.288Z,9.09
2022-12-22T19:44:30.421Z,9.10
2022-12-22T19:47:32.421Z,9.16
2022-12-22T19:51:14.439Z,9.09
2022-12-22T19:54:21.847Z,9.00
2022-12-22T19:57:23.702Z,8.95
2022-12-22T20:00:27.213Z,8.98
2022-12-22T20:03:28.871Z,8.93
2022-12-22T20:06:30.518Z,8.93
2022-12-22T20:09:32.038Z,8.94
2022-12-22T20:12:37.649Z,8.96
2022-12-22T20:16:57.788Z,8.95
2022-12-22T20:19:59.422Z,8.71
2022-12-22T20:23:11.384Z,8.61
2022-12-22T20:26:20.429Z,8.55
2022-12-22T20:29:22.344Z,8.46
2022-12-22T20:32:27.862Z,8.49
2022-12-22T20:35:30.326Z,8.50
2022-12-22T20:38:36.123Z,8.45
2022-12-22T20:41:37.753Z,8.39
2022-12-22T20:44:39.293Z,8.32
2022-12-22T20:48:00.932Z,8.34
2022-12-22T20:51:37.112Z,8.32
2022-12-22T20:54:38.872Z,8.46
2022-12-22T20:57:40.423Z,8.42
2022-12-22T21:00:42.748Z,8.33
2022-12-22T21:03:44.932Z,8.28
2022-12-22T21:06:54.638Z,8.31
2022-12-22T21:09:56.375Z,8.20
2022-12-22T21:12:57.932Z,8.26
2022-12-22T21:15:59.445Z,8.32
2022-12-22T21:19:01.546Z,8.34
2022-12-22T21:22:03.151Z,8.32
2022-12-22T21:25:05.050Z,8.29
2022-12-22T21:28:08.871Z,8.23
2022-12-22T21:31:10.423Z,8.22
2022-12-22T21:39:04.144Z,8.23
2022-12-22T21:42:06.456Z,8.27
2022-12-22T21:45:12.338Z,8.32
2022-12-22T21:48:19.825Z,8.32
2022-12-22T21:51:21.465Z,8.52
2022-12-22T21:54:24.902Z,8.57
2022-12-22T21:57:28.520Z,8.60
2022-12-22T22:00:31.273Z,8.73
2022-12-22T22:03:33.529Z,8.94
2022-12-22T22:06:35.276Z,9.51
2022-12-22T22:09:36.834Z,9.75
2022-12-22T22:12:38.555Z,10.05
2022-12-22T22:15:40.263Z,10.36
2022-12-22T22:18:43.293Z,10.45
2022-12-22T22:21:45.584Z,10.53
2022-12-22T22:24:47.107Z,10.56
2022-12-22T22:27:49.544Z,10.62
2022-12-22T22:30:51.086Z,10.64
2022-12-22T22:33:52.737Z,10.68
2022-12-22T22:36:54.452Z,10.72
2022-12-22T22:39:56.067Z,10.72
2022-12-22T22:42:57.680Z,10.67
2022-12-22T22:45:59.221Z,10.69
2022-12-22T22:49:01.431Z,10.79
2022-12-22T22:52:03.017Z,10.79
2022-12-22T22:55:04.967Z,10.87
2022-12-22T22:58:06.826Z,10.87
2022-12-22T23:01:10.752Z,10.93
2022-12-22T23:04:12.749Z,11.03
2022-12-22T23:07:14.396Z,11.05
2022-12-22T23:10:15.991Z,11.02
2022-12-22T23:13:17.601Z,11.04
2022-12-22T23:16:21.507Z,11.11
2022-12-22T23:19:24.563Z,11.11
2022-12-22T23:22:26.082Z,11.13
2022-12-22T23:25:27.608Z,11.18
2022-12-22T23:28:29.190Z,11.20
2022-12-22T23:31:32.471Z,11.21
2022-12-22T23:34:34.125Z,11.24
2022-12-22T23:37:35.867Z,11.23
2022-12-22T23:40:52.166Z,11.25
2022-12-22T23:43:55.079Z,11.26
2022-12-22T23:46:56.648Z,11.30
2022-12-22T23:49:58.170Z,11.41
2022-12-22T23:52:59.774Z,11.48
2022-12-22T23:56:01.523Z,11.55
2022-12-22T23:59:03.260Z,11.50
